sensor_id;sensor_type;location;lat;lon;timestamp;P1;durP1;ratioP1;P2;durP2;ratioP2
74383;SDS011;62824;52.994;-3.936;2023-04-15T00:02:23;4.45;;;1.85;;
74383;SDS011;62824;52.994;-3.936;2023-04-15T00:04:49;2.83;;;2.08;;
74383;SDS011;62824;52.994;-3.936;2023-04-15T00:07:14;5.90;;;2.00;;
74383;SDS011;62824;52.994;-3.936;2023-04-15T00:09:42;4.28;;;1.95;;
74383;SDS011;62824;52.994;-3.936;2023-04-15T00:12:08;6.95;;;1.77;;
74383;SDS011;62824;52.994;-3.936;2023-04-15T00:14:35;4.43;;;1.70;;
74383;SDS011;62824;52.994;-3.936;2023-04-15T00:17:01;4.15;;;1.75;;
74383;SDS011;62824;52.994;-3.936;2023-04-15T00:19:28;5.00;;;2.75;;
74383;SDS011;62824;52.994;-3.936;2023-04-15T00:21:54;5.85;;;2.15;;
74383;SDS011;62824;52.994;-3.936;2023-04-15T00:24:21;3.58;;;1.30;;
74383;SDS011;62824;52.994;-3.936;2023-04-15T00:26:47;4.50;;;1.92;;
74383;SDS011;62824;52.994;-3.936;2023-04-15T00:29:13;3.22;;;1.65;;
74383;SDS011;62824;52.994;-3.936;2023-04-15T00:31:39;3.03;;;1.77;;
74383;SDS011;62824;52.994;-3.936;2023-04-15T00:34:06;2.63;;;1.38;;
74383;SDS011;62824;52.994;-3.936;2023-04-15T00:36:32;3.85;;;1.60;;
74383;SDS011;62824;52.994;-3.936;2023-04-15T00:38:59;3.58;;;1.40;;
74383;SDS011;62824;52.994;-3.936;2023-04-15T00:41:25;3.08;;;1.70;;
74383;SDS011;62824;52.994;-3.936;2023-04-15T00:43:51;2.45;;;1.50;;
74383;SDS011;62824;52.994;-3.936;2023-04-15T00:46:16;4.50;;;1.67;;
74383;SDS011;62824;52.994;-3.936;2023-04-15T00:48:45;5.32;;;1.75;;
74383;SDS011;62824;52.994;-3.936;2023-04-15T00:51:12;5.72;;;2.40;;
74383;SDS011;62824;52.994;-3.936;2023-04-15T00:53:38;15.10;;;6.68;;
74383;SDS011;62824;52.994;-3.936;2023-04-15T00:56:05;17.25;;;7.43;;
74383;SDS011;62824;52.994;-3.936;2023-04-15T00:58:31;14.50;;;7.03;;
74383;SDS011;62824;52.994;-3.936;2023-04-15T01:00:57;12.10;;;4.97;;
74383;SDS011;62824;52.994;-3.936;2023-04-15T01:03:24;12.00;;;4.13;;
74383;SDS011;62824;52.994;-3.936;2023-04-15T01:05:49;9.07;;;4.20;;
74383;SDS011;62824;52.994;-3.936;2023-04-15T01:08:22;6.33;;;3.50;;
74383;SDS011;62824;52.994;-3.936;2023-04-15T01:10:58;5.03;;;2.38;;
74383;SDS011;62824;52.994;-3.936;2023-04-15T01:13:27;4.10;;;2.28;;
74383;SDS011;62824;52.994;-3.936;2023-04-15T01:15:55;4.28;;;1.83;;
74383;SDS011;62824;52.994;-3.936;2023-04-15T01:18:21;4.72;;;2.40;;
74383;SDS011;62824;52.994;-3.936;2023-04-15T01:20:48;5.32;;;3.10;;
74383;SDS011;62824;52.994;-3.936;2023-04-15T01:23:13;5.00;;;2.65;;
74383;SDS011;62824;52.994;-3.936;2023-04-15T01:25:41;3.85;;;1.90;;
74383;SDS011;62824;52.994;-3.936;2023-04-15T01:28:08;4.80;;;2.10;;
74383;SDS011;62824;52.994;-3.936;2023-04-15T01:30:35;4.03;;;2.22;;
74383;SDS011;62824;52.994;-3.936;2023-04-15T01:33:01;5.30;;;2.63;;
74383;SDS011;62824;52.994;-3.936;2023-04-15T01:35:27;6.60;;;2.20;;
74383;SDS011;62824;52.994;-3.936;2023-04-15T01:37:53;6.72;;;3.58;;
74383;SDS011;62824;52.994;-3.936;2023-04-15T01:40:23;8.52;;;3.63;;
74383;SDS011;62824;52.994;-3.936;2023-04-15T01:42:49;9.43;;;4.32;;
74383;SDS011;62824;52.994;-3.936;2023-04-15T01:45:15;24.13;;;10.23;;
74383;SDS011;62824;52.994;-3.936;2023-04-15T01:47:41;21.60;;;9.43;;
74383;SDS011;62824;52.994;-3.936;2023-04-15T01:50:07;10.63;;;4.93;;
74383;SDS011;62824;52.994;-3.936;2023-04-15T01:52:33;6.07;;;3.65;;
74383;SDS011;62824;52.994;-3.936;2023-04-15T01:54:59;6.20;;;2.63;;
74383;SDS011;62824;52.994;-3.936;2023-04-15T01:57:25;7.45;;;3.83;;
74383;SDS011;62824;52.994;-3.936;2023-04-15T01:59:51;6.40;;;3.50;;
74383;SDS011;62824;52.994;-3.936;2023-04-15T02:02:16;8.70;;;5.22;;
74383;SDS011;62824;52.994;-3.936;2023-04-15T02:04:42;5.68;;;2.88;;
74383;SDS011;62824;52.994;-3.936;2023-04-15T02:07:08;10.68;;;4.50;;
74383;SDS011;62824;52.994;-3.936;2023-04-15T02:09:34;11.85;;;5.05;;
74383;SDS011;62824;52.994;-3.936;2023-04-15T02:12:00;11.63;;;4.55;;
74383;SDS011;62824;52.994;-3.936;2023-04-15T02:14:25;9.27;;;3.40;;
74383;SDS011;62824;52.994;-3.936;2023-04-15T02:16:51;5.60;;;2.83;;
74383;SDS011;62824;52.994;-3.936;2023-04-15T02:19:17;7.40;;;3.58;;
74383;SDS011;62824;52.994;-3.936;2023-04-15T02:21:43;7.25;;;3.33;;
74383;SDS011;62824;52.994;-3.936;2023-04-15T02:24:08;6.55;;;2.75;;
74383;SDS011;62824;52.994;-3.936;2023-04-15T02:26:36;6.05;;;3.03;;
74383;SDS011;62824;52.994;-3.936;2023-04-15T02:29:02;6.15;;;2.72;;
74383;SDS011;62824;52.994;-3.936;2023-04-15T02:31:28;4.13;;;1.85;;
74383;SDS011;62824;52.994;-3.936;2023-04-15T02:33:54;7.18;;;2.75;;
74383;SDS011;62824;52.994;-3.936;2023-04-15T02:36:20;7.25;;;3.35;;
74383;SDS011;62824;52.994;-3.936;2023-04-15T02:38:45;5.72;;;2.40;;
74383;SDS011;62824;52.994;-3.936;2023-04-15T02:41:11;3.45;;;2.22;;
74383;SDS011;62824;52.994;-3.936;2023-04-15T02:43:37;4.97;;;2.67;;
74383;SDS011;62824;52.994;-3.936;2023-04-15T02:46:04;5.63;;;2.75;;
74383;SDS011;62824;52.994;-3.936;2023-04-15T02:48:30;4.80;;;2.40;;
74383;SDS011;62824;52.994;-3.936;2023-04-15T02:53:41;3.15;;;1.80;;
74383;SDS011;62824;52.994;-3.936;2023-04-15T02:56:07;4.03;;;2.10;;
74383;SDS011;62824;52.994;-3.936;2023-04-15T02:58:33;5.13;;;1.90;;
74383;SDS011;62824;52.994;-3.936;2023-04-15T03:01:00;3.88;;;1.70;;
74383;SDS011;62824;52.994;-3.936;2023-04-15T03:03:26;2.95;;;1.80;;
74383;SDS011;62824;52.994;-3.936;2023-04-15T03:05:52;4.10;;;2.28;;
74383;SDS011;62824;52.994;-3.936;2023-04-15T03:08:18;3.42;;;1.95;;
74383;SDS011;62824;52.994;-3.936;2023-04-15T03:10:47;3.97;;;1.83;;
74383;SDS011;62824;52.994;-3.936;2023-04-15T03:13:13;2.70;;;1.63;;
74383;SDS011;62824;52.994;-3.936;2023-04-15T03:15:39;3.83;;;1.40;;
74383;SDS011;62824;52.994;-3.936;2023-04-15T03:18:04;2.88;;;1.40;;
74383;SDS011;62824;52.994;-3.936;2023-04-15T03:20:30;6.05;;;1.90;;
74383;SDS011;62824;52.994;-3.936;2023-04-15T03:22:56;2.75;;;1.38;;
74383;SDS011;62824;52.994;-3.936;2023-04-15T03:25:22;2.45;;;1.35;;
74383;SDS011;62824;52.994;-3.936;2023-04-15T03:27:47;6.20;;;1.58;;
74383;SDS011;62824;52.994;-3.936;2023-04-15T03:30:13;3.08;;;1.42;;
74383;SDS011;62824;52.994;-3.936;2023-04-15T03:32:39;3.40;;;1.50;;
74383;SDS011;62824;52.994;-3.936;2023-04-15T03:35:05;4.68;;;1.45;;
74383;SDS011;62824;52.994;-3.936;2023-04-15T03:37:31;1.92;;;1.48;;
74383;SDS011;62824;52.994;-3.936;2023-04-15T03:39:56;3.75;;;1.63;;
74383;SDS011;62824;52.994;-3.936;2023-04-15T03:42:22;2.10;;;1.65;;
74383;SDS011;62824;52.994;-3.936;2023-04-15T03:44:48;3.38;;;1.67;;
74383;SDS011;62824;52.994;-3.936;2023-04-15T03:47:13;6.13;;;2.08;;
74383;SDS011;62824;52.994;-3.936;2023-04-15T03:49:39;3.28;;;1.40;;
74383;SDS011;62824;52.994;-3.936;2023-04-15T03:52:05;4.90;;;1.60;;
74383;SDS011;62824;52.994;-3.936;2023-04-15T03:54:31;2.83;;;1.50;;
74383;SDS011;62824;52.994;-3.936;2023-04-15T03:56:56;5.07;;;1.73;;
74383;SDS011;62824;52.994;-3.936;2023-04-15T03:59:22;2.53;;;1.20;;
74383;SDS011;62824;52.994;-3.936;2023-04-15T04:01:48;4.88;;;1.42;;
74383;SDS011;62824;52.994;-3.936;2023-04-15T04:04:14;2.72;;;1.40;;
74383;SDS011;62824;52.994;-3.936;2023-04-15T04:06:39;2.17;;;1.35;;
74383;SDS011;62824;52.994;-3.936;2023-04-15T04:09:05;2.10;;;1.30;;
74383;SDS011;62824;52.994;-3.936;2023-04-15T04:11:31;3.42;;;1.48;;
74383;SDS011;62824;52.994;-3.936;2023-04-15T04:13:57;3.00;;;1.40;;
74383;SDS011;62824;52.994;-3.936;2023-04-15T04:16:23;2.20;;;1.17;;
74383;SDS011;62824;52.994;-3.936;2023-04-15T04:18:48;5.07;;;1.27;;
74383;SDS011;62824;52.994;-3.936;2023-04-15T04:21:14;1.90;;;1.25;;
74383;SDS011;62824;52.994;-3.936;2023-04-15T04:23:40;3.83;;;1.50;;
74383;SDS011;62824;52.994;-3.936;2023-04-15T04:26:06;2.47;;;1.10;;
74383;SDS011;62824;52.994;-3.936;2023-04-15T04:28:32;3.08;;;1.30;;
74383;SDS011;62824;52.994;-3.936;2023-04-15T04:30:59;2.42;;;1.50;;
74383;SDS011;62824;52.994;-3.936;2023-04-15T04:33:25;1.85;;;1.20;;
74383;SDS011;62824;52.994;-3.936;2023-04-15T04:35:51;3.40;;;1.40;;
74383;SDS011;62824;52.994;-3.936;2023-04-15T04:38:16;2.60;;;1.35;;
74383;SDS011;62824;52.994;-3.936;2023-04-15T04:40:42;3.20;;;1.40;;
74383;SDS011;62824;52.994;-3.936;2023-04-15T04:43:08;2.60;;;1.70;;
74383;SDS011;62824;52.994;-3.936;2023-04-15T04:45:34;2.92;;;1.63;;
74383;SDS011;62824;52.994;-3.936;2023-04-15T04:48:00;2.85;;;1.63;;
74383;SDS011;62824;52.994;-3.936;2023-04-15T04:50:26;5.38;;;1.90;;
74383;SDS011;62824;52.994;-3.936;2023-04-15T04:52:51;3.42;;;1.63;;
74383;SDS011;62824;52.994;-3.936;2023-04-15T04:55:17;3.13;;;1.55;;
74383;SDS011;62824;52.994;-3.936;2023-04-15T04:57:43;3.05;;;1.88;;
74383;SDS011;62824;52.994;-3.936;2023-04-15T05:00:09;4.93;;;2.25;;
74383;SDS011;62824;52.994;-3.936;2023-04-15T05:02:36;2.83;;;1.70;;
74383;SDS011;62824;52.994;-3.936;2023-04-15T05:05:02;3.33;;;1.70;;
74383;SDS011;62824;52.994;-3.936;2023-04-15T05:07:28;3.47;;;2.35;;
74383;SDS011;62824;52.994;-3.936;2023-04-15T05:09:54;2.38;;;1.75;;
74383;SDS011;62824;52.994;-3.936;2023-04-15T05:12:20;4.07;;;2.60;;
74383;SDS011;62824;52.994;-3.936;2023-04-15T05:14:46;3.13;;;1.90;;
74383;SDS011;62824;52.994;-3.936;2023-04-15T05:17:12;3.67;;;1.92;;
74383;SDS011;62824;52.994;-3.936;2023-04-15T05:19:38;3.90;;;2.00;;
74383;SDS011;62824;52.994;-3.936;2023-04-15T05:22:04;2.50;;;1.88;;
74383;SDS011;62824;52.994;-3.936;2023-04-15T05:24:30;3.28;;;2.00;;
74383;SDS011;62824;52.994;-3.936;2023-04-15T05:26:56;3.60;;;1.95;;
74383;SDS011;62824;52.994;-3.936;2023-04-15T05:29:21;4.50;;;2.03;;
74383;SDS011;62824;52.994;-3.936;2023-04-15T05:31:47;4.05;;;2.28;;
74383;SDS011;62824;52.994;-3.936;2023-04-15T05:34:13;3.53;;;1.75;;
74383;SDS011;62824;52.994;-3.936;2023-04-15T05:36:40;3.78;;;1.88;;
74383;SDS011;62824;52.994;-3.936;2023-04-15T05:39:06;4.30;;;2.35;;
74383;SDS011;62824;52.994;-3.936;2023-04-15T05:41:32;5.78;;;2.20;;
74383;SDS011;62824;52.994;-3.936;2023-04-15T05:43:58;2.85;;;1.90;;
74383;SDS011;62824;52.994;-3.936;2023-04-15T05:46:24;4.72;;;2.47;;
74383;SDS011;62824;52.994;-3.936;2023-04-15T05:48:50;5.20;;;2.72;;
74383;SDS011;62824;52.994;-3.936;2023-04-15T05:51:16;3.90;;;2.50;;
74383;SDS011;62824;52.994;-3.936;2023-04-15T05:53:41;4.85;;;2.63;;
74383;SDS011;62824;52.994;-3.936;2023-04-15T05:56:07;3.33;;;2.17;;
74383;SDS011;62824;52.994;-3.936;2023-04-15T05:58:33;4.15;;;2.50;;
74383;SDS011;62824;52.994;-3.936;2023-04-15T06:01:01;2.95;;;2.45;;
74383;SDS011;62824;52.994;-3.936;2023-04-15T06:03:27;6.25;;;2.75;;
74383;SDS011;62824;52.994;-3.936;2023-04-15T06:05:53;6.15;;;2.33;;
74383;SDS011;62824;52.994;-3.936;2023-04-15T06:08:19;4.60;;;2.40;;
74383;SDS011;62824;52.994;-3.936;2023-04-15T06:10:45;3.38;;;2.28;;
74383;SDS011;62824;52.994;-3.936;2023-04-15T06:13:11;5.30;;;2.60;;
74383;SDS011;62824;52.994;-3.936;2023-04-15T06:15:37;4.72;;;2.72;;
74383;SDS011;62824;52.994;-3.936;2023-04-15T06:18:03;5.50;;;2.25;;
74383;SDS011;62824;52.994;-3.936;2023-04-15T06:20:29;4.38;;;2.65;;
74383;SDS011;62824;52.994;-3.936;2023-04-15T06:22:55;5.93;;;2.15;;
74383;SDS011;62824;52.994;-3.936;2023-04-15T06:25:21;5.20;;;2.65;;
74383;SDS011;62824;52.994;-3.936;2023-04-15T06:27:48;3.60;;;1.80;;
74383;SDS011;62824;52.994;-3.936;2023-04-15T06:30:13;3.30;;;1.55;;
74383;SDS011;62824;52.994;-3.936;2023-04-15T06:32:39;3.50;;;1.83;;
74383;SDS011;62824;52.994;-3.936;2023-04-15T06:35:05;2.75;;;1.83;;
74383;SDS011;62824;52.994;-3.936;2023-04-15T06:37:31;2.20;;;1.63;;
74383;SDS011;62824;52.994;-3.936;2023-04-15T06:39:57;4.03;;;1.88;;
74383;SDS011;62824;52.994;-3.936;2023-04-15T06:42:22;1.83;;;1.60;;
74383;SDS011;62824;52.994;-3.936;2023-04-15T06:44:48;4.90;;;1.88;;
74383;SDS011;62824;52.994;-3.936;2023-04-15T06:47:14;4.82;;;1.90;;
74383;SDS011;62824;52.994;-3.936;2023-04-15T06:49:40;2.88;;;1.67;;
74383;SDS011;62824;52.994;-3.936;2023-04-15T06:52:07;2.72;;;1.65;;
74383;SDS011;62824;52.994;-3.936;2023-04-15T06:54:35;2.45;;;1.80;;
74383;SDS011;62824;52.994;-3.936;2023-04-15T06:57:00;3.40;;;1.80;;
74383;SDS011;62824;52.994;-3.936;2023-04-15T06:59:26;3.15;;;1.52;;
74383;SDS011;62824;52.994;-3.936;2023-04-15T07:01:52;4.60;;;1.48;;
74383;SDS011;62824;52.994;-3.936;2023-04-15T07:04:18;1.73;;;1.30;;
74383;SDS011;62824;52.994;-3.936;2023-04-15T07:06:44;1.77;;;1.60;;
74383;SDS011;62824;52.994;-3.936;2023-04-15T07:09:11;7.35;;;1.80;;
74383;SDS011;62824;52.994;-3.936;2023-04-15T07:11:37;1.63;;;1.30;;
74383;SDS011;62824;52.994;-3.936;2023-04-15T07:14:03;2.15;;;1.60;;
74383;SDS011;62824;52.994;-3.936;2023-04-15T07:16:29;2.03;;;1.70;;
74383;SDS011;62824;52.994;-3.936;2023-04-15T07:18:55;3.65;;;1.70;;
74383;SDS011;62824;52.994;-3.936;2023-04-15T07:21:21;3.97;;;1.67;;
74383;SDS011;62824;52.994;-3.936;2023-04-15T07:23:48;3.30;;;1.40;;
74383;SDS011;62824;52.994;-3.936;2023-04-15T07:26:13;1.95;;;1.70;;
74383;SDS011;62824;52.994;-3.936;2023-04-15T07:28:39;2.65;;;1.67;;
74383;SDS011;62824;52.994;-3.936;2023-04-15T07:31:05;2.50;;;1.52;;
74383;SDS011;62824;52.994;-3.936;2023-04-15T07:33:32;3.92;;;1.98;;
74383;SDS011;62824;52.994;-3.936;2023-04-15T07:35:58;3.65;;;1.67;;
74383;SDS011;62824;52.994;-3.936;2023-04-15T07:38:25;4.10;;;1.70;;
74383;SDS011;62824;52.994;-3.936;2023-04-15T07:40:51;2.67;;;1.38;;
74383;SDS011;62824;52.994;-3.936;2023-04-15T07:43:17;2.92;;;1.60;;
74383;SDS011;62824;52.994;-3.936;2023-04-15T07:45:44;2.13;;;1.50;;
74383;SDS011;62824;52.994;-3.936;2023-04-15T07:48:10;2.55;;;1.42;;
74383;SDS011;62824;52.994;-3.936;2023-04-15T07:50:36;2.78;;;1.42;;
74383;SDS011;62824;52.994;-3.936;2023-04-15T07:53:02;2.03;;;1.60;;
74383;SDS011;62824;52.994;-3.936;2023-04-15T07:55:28;2.60;;;1.55;;
74383;SDS011;62824;52.994;-3.936;2023-04-15T07:57:54;3.20;;;1.70;;
74383;SDS011;62824;52.994;-3.936;2023-04-15T08:00:21;3.75;;;1.60;;
74383;SDS011;62824;52.994;-3.936;2023-04-15T08:02:47;7.00;;;4.55;;
74383;SDS011;62824;52.994;-3.936;2023-04-15T08:05:13;1.70;;;1.55;;
74383;SDS011;62824;52.994;-3.936;2023-04-15T08:07:39;3.80;;;1.67;;
74383;SDS011;62824;52.994;-3.936;2023-04-15T08:10:06;2.00;;;1.80;;
74383;SDS011;62824;52.994;-3.936;2023-04-15T08:12:32;3.35;;;1.70;;
74383;SDS011;62824;52.994;-3.936;2023-04-15T08:14:58;3.92;;;1.85;;
74383;SDS011;62824;52.994;-3.936;2023-04-15T08:17:24;2.35;;;1.55;;
74383;SDS011;62824;52.994;-3.936;2023-04-15T08:19:50;5.07;;;2.10;;
74383;SDS011;62824;52.994;-3.936;2023-04-15T08:22:16;3.50;;;1.90;;
74383;SDS011;62824;52.994;-3.936;2023-04-15T08:24:42;3.47;;;2.20;;
74383;SDS011;62824;52.994;-3.936;2023-04-15T08:27:07;3.40;;;1.60;;
74383;SDS011;62824;52.994;-3.936;2023-04-15T08:29:34;3.45;;;2.08;;
74383;SDS011;62824;52.994;-3.936;2023-04-15T08:32:00;3.78;;;1.80;;
74383;SDS011;62824;52.994;-3.936;2023-04-15T08:34:26;4.18;;;1.98;;
74383;SDS011;62824;52.994;-3.936;2023-04-15T08:36:53;4.60;;;2.17;;
74383;SDS011;62824;52.994;-3.936;2023-04-15T08:39:19;3.97;;;1.85;;
74383;SDS011;62824;52.994;-3.936;2023-04-15T08:41:46;3.30;;;1.70;;
74383;SDS011;62824;52.994;-3.936;2023-04-15T08:44:20;4.43;;;1.80;;
74383;SDS011;62824;52.994;-3.936;2023-04-15T08:46:50;2.63;;;1.40;;
74383;SDS011;62824;52.994;-3.936;2023-04-15T08:49:16;2.33;;;1.67;;
74383;SDS011;62824;52.994;-3.936;2023-04-15T08:51:43;2.25;;;1.30;;
74383;SDS011;62824;52.994;-3.936;2023-04-15T08:54:09;1.85;;;1.40;;
74383;SDS011;62824;52.994;-3.936;2023-04-15T08:56:37;2.10;;;1.70;;
74383;SDS011;62824;52.994;-3.936;2023-04-15T08:59:03;2.63;;;1.70;;
74383;SDS011;62824;52.994;-3.936;2023-04-15T09:01:33;3.92;;;1.70;;
74383;SDS011;62824;52.994;-3.936;2023-04-15T09:03:59;1.95;;;1.60;;
74383;SDS011;62824;52.994;-3.936;2023-04-15T09:06:27;2.75;;;1.63;;
74383;SDS011;62824;52.994;-3.936;2023-04-15T09:08:52;2.63;;;1.63;;
74383;SDS011;62824;52.994;-3.936;2023-04-15T09:11:20;2.08;;;1.55;;
74383;SDS011;62824;52.994;-3.936;2023-04-15T09:13:46;2.83;;;1.60;;
74383;SDS011;62824;52.994;-3.936;2023-04-15T09:16:12;2.00;;;1.40;;
74383;SDS011;62824;52.994;-3.936;2023-04-15T09:18:39;1.50;;;1.40;;
74383;SDS011;62824;52.994;-3.936;2023-04-15T09:21:08;2.97;;;1.60;;
74383;SDS011;62824;52.994;-3.936;2023-04-15T09:23:52;3.97;;;1.42;;
74383;SDS011;62824;52.994;-3.936;2023-04-15T09:26:37;3.25;;;1.27;;
74383;SDS011;62824;52.994;-3.936;2023-04-15T09:29:08;3.20;;;1.38;;
74383;SDS011;62824;52.994;-3.936;2023-04-15T09:31:37;2.03;;;1.55;;
74383;SDS011;62824;52.994;-3.936;2023-04-15T09:34:03;2.55;;;1.50;;
74383;SDS011;62824;52.994;-3.936;2023-04-15T09:36:50;3.00;;;1.13;;
74383;SDS011;62824;52.994;-3.936;2023-04-15T09:39:21;1.90;;;1.48;;
74383;SDS011;62824;52.994;-3.936;2023-04-15T09:41:51;4.00;;;1.30;;
74383;SDS011;62824;52.994;-3.936;2023-04-15T09:44:30;4.78;;;1.42;;
74383;SDS011;62824;52.994;-3.936;2023-04-15T09:46:56;2.97;;;1.20;;
74383;SDS011;62824;52.994;-3.936;2023-04-15T09:49:23;1.50;;;1.20;;
74383;SDS011;62824;52.994;-3.936;2023-04-15T09:51:49;2.53;;;1.38;;
74383;SDS011;62824;52.994;-3.936;2023-04-15T09:54:18;3.78;;;1.17;;
74383;SDS011;62824;52.994;-3.936;2023-04-15T09:56:47;2.17;;;1.10;;
74383;SDS011;62824;52.994;-3.936;2023-04-15T09:59:12;1.23;;;1.00;;
74383;SDS011;62824;52.994;-3.936;2023-04-15T10:01:39;1.52;;;0.80;;
74383;SDS011;62824;52.994;-3.936;2023-04-15T10:04:06;0.93;;;0.85;;
74383;SDS011;62824;52.994;-3.936;2023-04-15T10:06:34;1.90;;;1.02;;
74383;SDS011;62824;52.994;-3.936;2023-04-15T10:09:00;1.95;;;1.10;;
74383;SDS011;62824;52.994;-3.936;2023-04-15T10:11:29;1.23;;;0.95;;
74383;SDS011;62824;52.994;-3.936;2023-04-15T10:13:57;1.77;;;0.93;;
74383;SDS011;62824;52.994;-3.936;2023-04-15T10:16:25;4.47;;;1.20;;
74383;SDS011;62824;52.994;-3.936;2023-04-15T10:18:55;1.73;;;1.00;;
74383;SDS011;62824;52.994;-3.936;2023-04-15T10:21:22;1.30;;;1.10;;
74383;SDS011;62824;52.994;-3.936;2023-04-15T10:23:49;1.75;;;0.90;;
74383;SDS011;62824;52.994;-3.936;2023-04-15T10:26:15;3.33;;;0.95;;
74383;SDS011;62824;52.994;-3.936;2023-04-15T10:28:42;1.30;;;0.90;;
74383;SDS011;62824;52.994;-3.936;2023-04-15T10:31:10;0.73;;;0.70;;
74383;SDS011;62824;52.994;-3.936;2023-04-15T10:33:40;1.52;;;0.80;;
74383;SDS011;62824;52.994;-3.936;2023-04-15T10:36:07;1.75;;;0.50;;
74383;SDS011;62824;52.994;-3.936;2023-04-15T10:38:37;0.93;;;0.70;;
74383;SDS011;62824;52.994;-3.936;2023-04-15T10:43:49;1.08;;;0.90;;
74383;SDS011;62824;52.994;-3.936;2023-04-15T10:46:17;2.15;;;1.13;;
74383;SDS011;62824;52.994;-3.936;2023-04-15T10:49:05;1.55;;;0.88;;
74383;SDS011;62824;52.994;-3.936;2023-04-15T10:51:37;2.67;;;0.90;;
74383;SDS011;62824;52.994;-3.936;2023-04-15T10:54:08;1.70;;;0.80;;
74383;SDS011;62824;52.994;-3.936;2023-04-15T10:56:40;1.27;;;0.90;;
74383;SDS011;62824;52.994;-3.936;2023-04-15T10:59:10;3.70;;;1.00;;
74383;SDS011;62824;52.994;-3.936;2023-04-15T11:01:55;2.60;;;1.10;;
74383;SDS011;62824;52.994;-3.936;2023-04-15T11:12:42;3.30;;;1.85;;
74383;SDS011;62824;52.994;-3.936;2023-04-15T11:17:59;2.40;;;1.42;;
74383;SDS011;62824;52.994;-3.936;2023-04-15T11:20:47;1.77;;;1.30;;
74383;SDS011;62824;52.994;-3.936;2023-04-15T11:23:16;4.25;;;1.80;;
74383;SDS011;62824;52.994;-3.936;2023-04-15T11:25:53;2.05;;;1.23;;
74383;SDS011;62824;52.994;-3.936;2023-04-15T11:28:27;1.60;;;1.20;;
74383;SDS011;62824;52.994;-3.936;2023-04-15T11:30:55;1.35;;;1.05;;
74383;SDS011;62824;52.994;-3.936;2023-04-15T11:33:21;1.48;;;1.00;;
74383;SDS011;62824;52.994;-3.936;2023-04-15T11:35:49;1.88;;;1.10;;
74383;SDS011;62824;52.994;-3.936;2023-04-15T11:38:17;1.85;;;1.45;;
74383;SDS011;62824;52.994;-3.936;2023-04-15T11:40:44;1.40;;;1.20;;
74383;SDS011;62824;52.994;-3.936;2023-04-15T11:43:13;5.05;;;1.70;;
74383;SDS011;62824;52.994;-3.936;2023-04-15T11:45:49;2.22;;;1.15;;
74383;SDS011;62824;52.994;-3.936;2023-04-15T11:48:19;1.33;;;1.13;;
74383;SDS011;62824;52.994;-3.936;2023-04-15T11:50:51;1.50;;;1.25;;
74383;SDS011;62824;52.994;-3.936;2023-04-15T11:53:19;2.78;;;1.50;;
74383;SDS011;62824;52.994;-3.936;2023-04-15T11:55:45;2.30;;;1.55;;
74383;SDS011;62824;52.994;-3.936;2023-04-15T11:58:22;1.98;;;1.45;;
74383;SDS011;62824;52.994;-3.936;2023-04-15T12:00:50;2.13;;;1.73;;
74383;SDS011;62824;52.994;-3.936;2023-04-15T12:08:48;2.10;;;1.30;;
74383;SDS011;62824;52.994;-3.936;2023-04-15T12:11:37;1.90;;;1.58;;
74383;SDS011;62824;52.994;-3.936;2023-04-15T12:16:51;1.45;;;1.20;;
74383;SDS011;62824;52.994;-3.936;2023-04-15T12:22:04;2.47;;;1.23;;
74383;SDS011;62824;52.994;-3.936;2023-04-15T12:24:34;2.50;;;1.20;;
74383;SDS011;62824;52.994;-3.936;2023-04-15T12:27:05;2.78;;;1.70;;
74383;SDS011;62824;52.994;-3.936;2023-04-15T12:29:33;3.88;;;2.60;;
74383;SDS011;62824;52.994;-3.936;2023-04-15T12:32:05;1.83;;;1.10;;
74383;SDS011;62824;52.994;-3.936;2023-04-15T12:34:35;2.95;;;1.38;;
74383;SDS011;62824;52.994;-3.936;2023-04-15T12:37:15;3.00;;;1.55;;
74383;SDS011;62824;52.994;-3.936;2023-04-15T12:39:42;2.15;;;1.10;;
74383;SDS011;62824;52.994;-3.936;2023-04-15T12:42:09;0.98;;;0.93;;
74383;SDS011;62824;52.994;-3.936;2023-04-15T12:44:36;3.53;;;1.23;;
74383;SDS011;62824;52.994;-3.936;2023-04-15T12:47:03;2.70;;;1.27;;
74383;SDS011;62824;52.994;-3.936;2023-04-15T12:49:29;2.42;;;1.60;;
74383;SDS011;62824;52.994;-3.936;2023-04-15T12:51:57;1.42;;;1.10;;
74383;SDS011;62824;52.994;-3.936;2023-04-15T12:54:24;2.78;;;1.10;;
74383;SDS011;62824;52.994;-3.936;2023-04-15T12:56:52;2.17;;;1.13;;
74383;SDS011;62824;52.994;-3.936;2023-04-15T12:59:18;3.08;;;1.23;;
74383;SDS011;62824;52.994;-3.936;2023-04-15T13:01:44;1.30;;;1.20;;
74383;SDS011;62824;52.994;-3.936;2023-04-15T13:04:12;2.72;;;1.10;;
74383;SDS011;62824;52.994;-3.936;2023-04-15T13:06:38;2.28;;;1.10;;
74383;SDS011;62824;52.994;-3.936;2023-04-15T13:09:04;2.28;;;1.40;;
74383;SDS011;62824;52.994;-3.936;2023-04-15T13:11:30;2.60;;;1.30;;
74383;SDS011;62824;52.994;-3.936;2023-04-15T13:13:58;3.40;;;1.25;;
74383;SDS011;62824;52.994;-3.936;2023-04-15T13:16:27;2.38;;;1.52;;
74383;SDS011;62824;52.994;-3.936;2023-04-15T13:18:53;2.17;;;1.50;;
74383;SDS011;62824;52.994;-3.936;2023-04-15T13:21:19;1.20;;;1.10;;
74383;SDS011;62824;52.994;-3.936;2023-04-15T13:23:45;3.90;;;1.30;;
74383;SDS011;62824;52.994;-3.936;2023-04-15T13:26:12;2.00;;;1.40;;
74383;SDS011;62824;52.994;-3.936;2023-04-15T13:28:38;4.15;;;1.02;;
74383;SDS011;62824;52.994;-3.936;2023-04-15T13:31:04;3.45;;;1.50;;
74383;SDS011;62824;52.994;-3.936;2023-04-15T13:33:30;2.55;;;1.10;;
74383;SDS011;62824;52.994;-3.936;2023-04-15T13:35:56;1.40;;;0.95;;
74383;SDS011;62824;52.994;-3.936;2023-04-15T13:38:23;2.35;;;1.30;;
74383;SDS011;62824;52.994;-3.936;2023-04-15T13:40:49;4.03;;;1.30;;
74383;SDS011;62824;52.994;-3.936;2023-04-15T13:43:15;1.48;;;1.10;;
74383;SDS011;62824;52.994;-3.936;2023-04-15T13:45:41;2.28;;;1.15;;
74383;SDS011;62824;52.994;-3.936;2023-04-15T13:48:08;2.45;;;1.52;;
74383;SDS011;62824;52.994;-3.936;2023-04-15T13:50:34;2.47;;;1.55;;
74383;SDS011;62824;52.994;-3.936;2023-04-15T13:53:00;3.88;;;1.23;;
74383;SDS011;62824;52.994;-3.936;2023-04-15T13:55:26;2.15;;;1.23;;
74383;SDS011;62824;52.994;-3.936;2023-04-15T13:57:52;3.88;;;1.70;;
74383;SDS011;62824;52.994;-3.936;2023-04-15T14:00:18;3.42;;;1.35;;
74383;SDS011;62824;52.994;-3.936;2023-04-15T14:02:43;3.17;;;1.48;;
74383;SDS011;62824;52.994;-3.936;2023-04-15T14:05:10;2.88;;;1.30;;
74383;SDS011;62824;52.994;-3.936;2023-04-15T14:07:36;2.83;;;1.50;;
74383;SDS011;62824;52.994;-3.936;2023-04-15T14:10:02;3.58;;;1.52;;
74383;SDS011;62824;52.994;-3.936;2023-04-15T14:12:28;4.20;;;2.17;;
74383;SDS011;62824;52.994;-3.936;2023-04-15T14:14:54;2.92;;;1.30;;
74383;SDS011;62824;52.994;-3.936;2023-04-15T14:17:20;3.13;;;1.75;;
74383;SDS011;62824;52.994;-3.936;2023-04-15T14:19:46;3.63;;;1.50;;
74383;SDS011;62824;52.994;-3.936;2023-04-15T14:22:12;4.10;;;1.48;;
74383;SDS011;62824;52.994;-3.936;2023-04-15T14:24:38;3.08;;;1.48;;
74383;SDS011;62824;52.994;-3.936;2023-04-15T14:27:03;3.20;;;1.33;;
74383;SDS011;62824;52.994;-3.936;2023-04-15T14:29:30;6.03;;;3.78;;
74383;SDS011;62824;52.994;-3.936;2023-04-15T14:31:56;2.10;;;1.27;;
74383;SDS011;62824;52.994;-3.936;2023-04-15T14:34:23;2.85;;;1.63;;
74383;SDS011;62824;52.994;-3.936;2023-04-15T14:36:49;2.70;;;1.30;;
74383;SDS011;62824;52.994;-3.936;2023-04-15T14:39:17;1.92;;;1.17;;
74383;SDS011;62824;52.994;-3.936;2023-04-15T14:41:43;3.85;;;1.13;;
74383;SDS011;62824;52.994;-3.936;2023-04-15T14:44:10;3.88;;;1.15;;
74383;SDS011;62824;52.994;-3.936;2023-04-15T14:46:36;4.45;;;2.20;;
74383;SDS011;62824;52.994;-3.936;2023-04-15T14:49:03;2.35;;;1.40;;
74383;SDS011;62824;52.994;-3.936;2023-04-15T14:51:29;1.58;;;1.35;;
74383;SDS011;62824;52.994;-3.936;2023-04-15T14:53:56;1.33;;;1.00;;
74383;SDS011;62824;52.994;-3.936;2023-04-15T14:56:21;2.35;;;1.10;;
74383;SDS011;62824;52.994;-3.936;2023-04-15T14:58:47;3.03;;;1.35;;
74383;SDS011;62824;52.994;-3.936;2023-04-15T15:01:13;2.67;;;1.30;;